ホワイトホース の空港の天気 - METARとTAF

ホワイトホース国際空港 ( CYXY / YXY ) - カナダ ユーコン準州ホワイトホース
飛行場実況気象(Metar)
観測時間08/10 23:00 PDT (08/11 06:00 UTC)
風向・風速南南東 4m/s
視程10km以上
天気現象
少しの雲 雲底高度 760m
全天の8割程度の雲 雲底高度 1680m
全天の8割程度の雲 雲底高度 3050m
気温11℃
湿度67%
気圧1013.6hPa
METARCYXY 110600Z 15007KT 30SM FEW025 BKN055 BKN100 11/05 A2987 RMK SC1SC5AC1 SLP136 DENSITY ALT 2500FT
過去の天気等 Google飛行場航空写真 Wunderground天気予報

過去48時間のMETAR

飛行場予報(TAF)
発表時間: 8/10 22:38 PDT (8/11 05:38 UTC)
予報対象時間: 10日23時 PDT ~ 11日23時 PDT
風向・風速南南東 4m/s
視程10km以上
少しの雲 雲底高度 610m
全天の8割程度の雲 雲底高度 1520m
10日23時 PDT ~ 11日11時 PDT に一時的に
視程10km以上
天気現象弱いしゅう雨
全天の8割程度の雲 雲底高度 610m
全天を覆う雲 雲底高度 1520m
11日11時 PDT から
風向・風速北西 4m/s
視程10km以上
全天の8割程度の雲 雲底高度 1830m
11日11時 PDT ~ 11日20時 PDT に一時的に
視程10km以上
天気現象弱いしゅう雨
11日20時 PDT から
風向・風速北西 3m/s
視程10km以上
全天の8割程度の雲 雲底高度 3050m
TAF CYXY 110538Z 1106/1206 16008KT P6SM FEW020 BKN050
TEMPO 1106/1118 P6SM -SHRA BKN020 OVC050
FM111800 32008KT P6SM BKN060
TEMPO 1118/1203 P6SM -SHRA
FM120300 32006KT P6SM BKN100 RMK NXT FCST BY 111200Z